Flight Track Log - Related Links

Times and Time Zones

All times are in EDT time to prevent confusion due to time zone crossing. See the N618JB flight status page for this flight to view local times or setup timezone preferences in your user account.

Time Position Orientation Groundspeed Altitude Reporting Facility
EDT Latitude Longitude Course Direction KTS MPH feet Rate Location/Type
Thu 01:35:12 PM 33.7867 -118.1153 North 161 185 1,900  Level Los Angeles Center
Thu 01:35:29 PM 33.7667 -118.1000 148° Southeast 184 212 2,200 2,592 Climbing Southern California TRACON
Thu 01:37:00 PM 33.5427 -118.2983 208° Southwest  Level FlightAware Approximate
Thu 01:37:17 PM 33.6842 -118.1414 203° Southwest 226 260 7,300  Level Los Angeles Center
Thu 01:38:00 PM 33.4521 -118.3549 208° Southwest  Level FlightAware Approximate
Thu 01:38:19 PM 33.6175 -118.2008 217° Southwest 283 326 10,100  Level Los Angeles Center
Thu 01:39:00 PM 33.3689 -118.4167 North  Level FlightAware Approximate
Thu 01:39:21 PM 33.5436 -118.2672 217° Southwest 322 371 12,200  Level Los Angeles Center
Thu 01:40:00 PM 33.4698 -118.4167 North  Level FlightAware Approximate
Thu 01:40:23 PM 33.4631 -118.3400 217° Southwest 351 404 14,300  Level Los Angeles Center
Thu 01:41:25 PM 33.3931 -118.4375 229° Southwest 377 434 16,900 2,226 Climbing Los Angeles Center
Thu 01:42:27 PM 33.4425 -118.5331 302° West 365 420 18,900 2,208 Climbing Los Angeles Center
Thu 01:43:30 PM 33.5656 -118.5222 North 372 428 21,500 2,226 Climbing Los Angeles Center
Thu 01:44:31 PM 33.6728 -118.4956 12° North 377 434 23,500 1,854 Climbing Los Angeles Center
Thu 01:45:33 PM 33.7825 -118.4708 11° North 391 450 25,300 1,488 Climbing Los Angeles Center
Thu 01:46:36 PM 33.8947 -118.4539 North 397 457 26,600 1,296 Climbing Los Angeles Center
Thu 01:47:38 PM 34.0069 -118.4722 352° North 414 476 28,000 1,258 Climbing Los Angeles Center
Thu 01:48:40 PM 34.1119 -118.5183 340° North 406 467 29,200 1,210 Climbing Los Angeles Center
Thu 01:49:42 PM 34.2175 -118.5714 337° Northwest 409 471 30,500 1,694 Climbing Los Angeles Center
Thu 01:50:44 PM 34.3422 -118.6328 338° Northwest 406 467 32,700 1,597 Climbing Los Angeles Center
Thu 01:51:46 PM 34.4442 -118.6836 338° Northwest 398 458 33,800 629 Climbing Los Angeles Center
Thu 01:52:48 PM 34.5469 -118.7347 338° Northwest 399 459 34,000 97 Climbing Los Angeles Center
Thu 01:53:50 PM 34.6492 -118.7856 338° Northwest 398 458 34,000  Level Los Angeles Center
Thu 01:54:52 PM 34.7519 -118.8375 337° Northwest 401 461 34,000  Level Los Angeles Center
Thu 01:55:56 PM 34.8564 -118.8894 338° Northwest 402 463 34,000  Level Los Angeles Center
Thu 01:56:57 PM 34.9825 -118.9419 341° North 400 460 34,000  Level Los Angeles Center
Thu 01:58:11 PM 35.1083 -118.9981 340° North 402 463 34,000  Level Los Angeles Center
Thu 01:59:13 PM 35.2136 -119.0456 340° North 405 466 34,000  Level Los Angeles Center
Thu 02:00:17 PM 35.3172 -119.0919 340° North 401 461 34,000  Level Los Angeles Center
Thu 02:01:18 PM 35.4206 -119.1381 340° North 398 458 34,000  Level Los Angeles Center
Thu 02:02:20 PM 35.5444 -119.1944 340° North 397 457 34,000  Level Los Angeles Center
Thu 02:03:22 PM 35.6467 -119.2411 340° North 395 455 34,000  Level Los Angeles Center
Thu 02:04:24 PM 35.7508 -119.2889 340° North 398 458 34,000  Level Los Angeles Center
Thu 02:05:24 PM 35.8519 -119.3356 339° North 401 461 34,000  Level Oakland Center
Thu 02:06:26 PM 35.9564 -119.3828 340° North 402 463 34,000  Level Oakland Center
Thu 02:07:27 PM 36.0606 -119.4306 340° North 403 464 34,000  Level Oakland Center
Thu 02:08:29 PM 36.1647 -119.4797 339° North 404 465 34,000  Level Oakland Center
Thu 02:09:30 PM 36.2808 -119.5553 332° Northwest 397 457 34,000  Level Oakland Center
Thu 02:10:32 PM 36.3772 -119.6208 331° Northwest 396 456 34,000 -49 Level Oakland Center
Thu 02:11:33 PM 36.4722 -119.6864 331° Northwest 392 451 33,900 -488 Descending Oakland Center
Thu 02:12:35 PM 36.5669 -119.7519 331° Northwest 388 447 33,000 -927 Descending Oakland Center
Thu 02:13:36 PM 36.6581 -119.8161 331° Northwest 379 436 32,000 -976 Descending Oakland Center
Thu 02:14:38 PM 36.7503 -119.8800 331° Northwest 378 435 31,000 -823 Descending Oakland Center
Thu 02:15:40 PM 36.8406 -119.9428 331° Northwest 372 428 30,300 -927 Descending Oakland Center
Thu 02:16:41 PM 36.9472 -120.0178 331° Northwest 368 423 29,100 -1,024 Descending Oakland Center
Thu 02:17:43 PM 37.0356 -120.0800 331° Northwest 366 421 28,200 -927 Descending Oakland Center
Thu 02:18:44 PM 37.1183 -120.1375 331° Northwest 359 413 27,200 -927 Descending Oakland Center
Thu 02:19:46 PM 37.2042 -120.1975 331° Northwest 353 406 26,300 -927 Descending Oakland Center
Thu 02:20:47 PM 37.2881 -120.2581 330° Northwest 347 399 25,300 -976 Descending Oakland Center
Thu 02:21:49 PM 37.3753 -120.3106 334° Northwest 351 404 24,300 -1,268 Descending Oakland Center
Thu 02:22:50 PM 37.4692 -120.3889 326° Northwest 339 390 22,700 -1,805 Descending Oakland Center
Thu 02:23:52 PM 37.5422 -120.4633 321° Northwest 337 388 20,600 -1,854 Descending Oakland Center
Thu 02:24:53 PM 37.6133 -120.5369 321° Northwest 332 382 18,900 -1,707 Descending Oakland Center
Thu 02:25:55 PM 37.6825 -120.6050 322° Northwest 318 366 17,100 -1,415 Descending Oakland Center
Thu 02:26:56 PM 37.7506 -120.6728 322° Northwest 313 360 16,000 -537 Descending Oakland Center
Thu 02:27:58 PM 37.8200 -120.7428 321° Northwest 318 366 16,000 -435 Level Oakland Center
Thu 02:29:00 PM 37.8869 -120.8117 321° Northwest 314 361 15,100 -1,415 Descending Oakland Center
Thu 02:30:01 PM 37.9539 -120.8783 322° Northwest 307 353 13,100 -1,967 Descending Oakland Center
Thu 02:31:02 PM 38.0206 -120.9442 322° Northwest 303 349 11,100 -2,146 Descending Oakland Center
Thu 02:32:04 PM 38.0931 -121.0181 321° Northwest 283 326 8,700 -1,512 Descending Oakland Center
Thu 02:33:05 PM 38.1517 -121.0756 322° Northwest 271 312 8,000 -344 Descending Oakland Center
Thu 02:34:06 PM 38.2097 -121.1317 323° Northwest 263 303 8,000  Level Oakland Center
Thu 02:34:53 PM 38.2500 -121.1833 315° West 265 305 8,000  Level Northern Cal TRACON
Thu 02:35:53 PM 38.3000 -121.2500 314° West 258 297 8,000 -600 Level Northern Cal TRACON
Thu 02:36:53 PM 38.3333 -121.3167 303° West 230 265 6,800 -1,400 Descending Northern Cal TRACON
Thu 02:38:53 PM 38.4000 -121.4500 303° West 220 253 3,800 -1,267 Descending Northern Cal TRACON
Thu 02:39:53 PM 38.4333 -121.5000 310° West 208 239 3,000 -397 Descending Northern Cal TRACON
Thu 02:40:54 PM 38.4667 -121.5667 303° West 197 227 3,000  Level Northern Cal TRACON
Thu 02:41:53 PM 38.5167 -121.6000 332° Northwest 180 207 3,000 -353 Level Northern Cal TRACON
Thu 02:42:53 PM 38.5667 -121.6000 360° North 176 203 2,300 -700 Descending Northern Cal TRACON
Thu 02:43:53 PM 38.6000 -121.6000 360° North 135 155 1,600 -700 Descending Northern Cal TRACON
Thu 02:44:53 PM 38.6333 -121.6000 360° North 128 147 900 -700 Descending Northern Cal TRACON
Thu 02:45:53 PM 38.6833 -121.6000 360° North 133 153 200 -700 Descending Northern Cal TRACON
Thu 02:48:00 PM 38.6833 -121.5833 46° Northeast  Level FlightAware Approximate

Login

Don't have an account? Register now (free) for customized features, flight alerts, and more!